»·PEaware :: N285 KCNO-KSAN

N285 :: KCNO-KSAN

FLIGHT INFORMATION

Flight Status: Arrived
Operator: Privately registered:
United States
More flights under this callsign
Pilot: Leo F. (613)
Aircraft: BEECH AIRCRAFT SUPER KING AIR COMMUTER
(BE20)
More flights by this aircraft type
Origin: KCNO Chino
United States
Destination: KSAN San Diego Intl-Lindbergh
United States
More flights between these airports :: More routes between these airports
Route: +PDZ V186 HAILE V66 MZB
File this flight plan on PilotEdge
Remarks: TEC route ONTN12
Altitude:
(Current/Filed)
9,000ft
Speed:
(Current/Filed)
130kts
Departed: 09-Jan-18 12:02 PM
Arrived: 09-Jan-18 12:43 PM
Distance/Time
Traveled:
78nm/0:41
Distance/Time
To Go:
Arrived

Flight Plot

Page will automatically refresh every two minutes.


Map Options




Map Legend


Flown Route
Filed Route
Departure Airport
Arrival Airport
Navaid (VOR, NDB)
Fix

Horizontal Profiles

Position Reports

Time Latitude Longitude Heading Altitude Ground
Speed
09-Jan-18 11:34 33.978714 -117.637281 115 656ft 0kts
09-Jan-18 11:35 33.978714 -117.637280 115 656ft 0kts
09-Jan-18 11:36 33.978713 -117.637279 115 656ft 0kts
09-Jan-18 11:37 33.978713 -117.637278 115 656ft 0kts
09-Jan-18 11:38 33.978712 -117.637277 115 656ft 0kts
09-Jan-18 11:39 33.978712 -117.637276 115 656ft 0kts
09-Jan-18 11:40 33.978712 -117.637274 115 656ft 0kts
09-Jan-18 11:41 33.978711 -117.637273 115 656ft 0kts
09-Jan-18 11:42 33.978711 -117.637272 115 656ft 0kts
09-Jan-18 11:43 33.978710 -117.637271 115 656ft 0kts
09-Jan-18 11:44 33.978710 -117.637270 115 656ft 0kts
09-Jan-18 11:45 33.978709 -117.637269 115 656ft 0kts
09-Jan-18 11:46 33.978709 -117.637268 115 656ft 0kts
09-Jan-18 11:47 33.978708 -117.637267 115 656ft 0kts
09-Jan-18 11:48 33.978708 -117.637266 115 656ft 0kts
09-Jan-18 11:49 33.978708 -117.637264 115 656ft 0kts
09-Jan-18 11:50 33.978707 -117.637263 115 656ft 0kts
09-Jan-18 11:51 33.978707 -117.637262 115 656ft 0kts
09-Jan-18 11:52 33.978706 -117.637261 115 656ft 0kts
09-Jan-18 11:53 33.978706 -117.637260 115 656ft 0kts
09-Jan-18 11:54 33.978705 -117.637259 115 656ft 0kts
09-Jan-18 11:55 33.978705 -117.637258 115 656ft 0kts
09-Jan-18 11:56 33.978705 -117.637257 115 656ft 0kts
09-Jan-18 11:57 33.978575 -117.636384 97 656ft 0kts
09-Jan-18 11:58 33.978947 -117.634104 46 656ft 16kts
09-Jan-18 11:59 33.981720 -117.630112 147 656ft 9kts
09-Jan-18 12:00 33.981592 -117.630019 147 656ft 0kts
09-Jan-18 12:01 33.981591 -117.630018 147 656ft 0kts
09-Jan-18 12:02 33.981590 -117.630018 147 656ft 0kts
09-Jan-18 12:03 33.981589 -117.630017 147 656ft 0kts
09-Jan-18 12:04 33.981588 -117.630017 147 656ft 0kts
09-Jan-18 12:05 33.981592 -117.630863 230 656ft 4kts
09-Jan-18 12:06 33.980955 -117.631049 150 656ft 6kts
09-Jan-18 12:07 33.979999 -117.630773 225 656ft 0kts
09-Jan-18 12:08 33.961550 -117.652326 223 1344ft 158kts
09-Jan-18 12:09 33.925073 -117.692964 221 3296ft 188kts
09-Jan-18 12:10 33.879409 -117.677113 124 5309ft 201kts
09-Jan-18 12:11 33.893921 -117.605648 64 6003ft 259kts
09-Jan-18 12:12 33.911309 -117.532270 123 7906ft 212kts
09-Jan-18 12:13 33.867550 -117.486839 151 8995ft 228kts
09-Jan-18 12:14 33.811657 -117.440629 150 8994ft 253kts
09-Jan-18 12:15 33.753094 -117.391582 149 8996ft 256kts
09-Jan-18 12:16 33.694503 -117.342602 150 9000ft 257kts
09-Jan-18 12:17 33.635857 -117.293713 150 9000ft 257kts
09-Jan-18 12:18 33.576900 -117.244652 150 9008ft 257kts
09-Jan-18 12:19 33.518098 -117.195783 150 9008ft 257kts
09-Jan-18 12:20 33.455506 -117.157471 170 9004ft 249kts
09-Jan-18 12:21 33.388236 -117.136722 169 9006ft 250kts
09-Jan-18 12:22 33.320746 -117.117770 174 9008ft 249kts
09-Jan-18 12:23 33.261306 -117.080708 152 9005ft 219kts
09-Jan-18 12:24 33.214547 -117.042018 152 9009ft 194kts
09-Jan-18 12:25 33.171548 -117.005500 152 9012ft 185kts
09-Jan-18 12:26 33.129974 -116.969730 152 9009ft 183kts
09-Jan-18 12:27 33.088955 -116.934055 152 9007ft 182kts
09-Jan-18 12:28 33.047921 -116.898245 152 9007ft 182kts
09-Jan-18 12:29 33.007100 -116.862455 152 9007ft 182kts
09-Jan-18 12:30 32.966332 -116.826475 152 9010ft 185kts
09-Jan-18 12:31 32.924208 -116.789475 152 9014ft 188kts
09-Jan-18 12:32 32.881967 -116.752112 152 9015ft 190kts
09-Jan-18 12:33 32.839351 -116.714369 152 9015ft 191kts
09-Jan-18 12:34 32.796919 -116.676426 152 9015ft 191kts
09-Jan-18 12:35 32.754211 -116.638070 152 9020ft 193kts
09-Jan-18 12:36 32.711494 -116.599451 152 9016ft 193kts
09-Jan-18 12:37 32.666697 -116.570844 199 8690ft 183kts
09-Jan-18 12:38 32.641780 -116.626005 253 7142ft 216kts
09-Jan-18 12:39 32.627739 -116.697250 254 5810ft 218kts
09-Jan-18 12:40 32.613977 -116.766212 254 5305ft 199kts
09-Jan-18 12:41 32.630391 -116.828444 291 5147ft 203kts
09-Jan-18 12:42 32.655958 -116.884863 292 5135ft 169kts
09-Jan-18 12:43 32.674005 -116.934501 279 3960ft 149kts
09-Jan-18 12:44 32.683538 -116.985208 278 3355ft 168kts
09-Jan-18 12:45 32.696653 -117.038643 283 2664ft 167kts
09-Jan-18 12:46 32.709498 -117.090884 281 1912ft 162kts
09-Jan-18 12:47 32.721825 -117.141501 284 1096ft 133kts
09-Jan-18 12:48 32.729771 -117.174505 285 355ft 66kts
09-Jan-18 12:49 32.733270 -117.190341 205 19ft 8kts
09-Jan-18 12:50 32.733100 -117.190439 205 19ft 0kts
09-Jan-18 12:51 32.730914 -117.191342 168 19ft 18kts
09-Jan-18 12:52 32.730765 -117.191247 105 19ft 0kts

Navigation Log

Ident Type
1. KCNO Airport
2. PDZ Navaid
3. NIKKL Fix
4. WESIN Fix
5. TANNR Fix
6. DEGLE Fix
7. ROBNN Fix
8. HAILE Fix
9. MZB Navaid
10. KSAN Airport